createdAt,value
2019-05-23T00:00:07.049Z,82.67
2019-05-23T00:02:56.573Z,83.04
2019-05-23T00:05:46.769Z,83.38
2019-05-23T00:08:33.742Z,83.54
2019-05-23T00:11:35.901Z,83.55
2019-05-23T00:14:36.916Z,82.97
2019-05-23T00:17:23.717Z,83.83
2019-05-23T00:20:11.524Z,83.44
2019-05-23T00:22:59.092Z,83.93
2019-05-23T00:25:46.571Z,84.12
2019-05-23T00:28:34.777Z,84.42
2019-05-23T00:31:25.822Z,84.59
2019-05-23T00:34:13.083Z,84.73
2019-05-23T00:36:59.596Z,85.18
2019-05-23T00:39:46.519Z,85.40
2019-05-23T00:42:32.658Z,85.51
2019-05-23T00:45:20.707Z,85.52
2019-05-23T00:48:06.992Z,85.75
2019-05-23T00:50:53.959Z,85.70
2019-05-23T00:53:41.666Z,85.98
2019-05-23T00:56:27.812Z,86.18
2019-05-23T00:59:26.755Z,86.43
2019-05-23T01:02:02.592Z,86.23
2019-05-23T01:04:50.247Z,86.34
2019-05-23T01:07:36.517Z,86.79
2019-05-23T01:10:22.601Z,86.64
2019-05-23T01:13:09.984Z,86.66
2019-05-23T01:15:56.879Z,86.85
2019-05-23T01:18:43.467Z,87.10
2019-05-23T01:21:47.159Z,87.61
2019-05-23T01:24:42.717Z,87.76
2019-05-23T01:27:29.929Z,87.23
2019-05-23T01:30:20.578Z,87.07
2019-05-23T01:33:06.968Z,87.27
2019-05-23T01:35:53.646Z,87.89
2019-05-23T01:38:40.817Z,87.59
2019-05-23T01:41:27.193Z,87.72
2019-05-23T01:44:13.553Z,87.38
2019-05-23T01:46:59.686Z,87.09
2019-05-23T01:49:46.452Z,87.46
2019-05-23T01:52:32.826Z,87.36
2019-05-23T01:55:19.452Z,87.78
2019-05-23T01:58:05.642Z,87.70
2019-05-23T02:00:53.062Z,87.55
2019-05-23T02:03:39.311Z,87.52
2019-05-23T02:06:25.924Z,87.40
2019-05-23T02:09:13.242Z,87.68
2019-05-23T02:11:59.752Z,87.82
2019-05-23T02:14:46.012Z,87.96
2019-05-23T02:17:33.257Z,87.96
2019-05-23T02:20:22.032Z,87.88
2019-05-23T02:23:09.168Z,88.03
2019-05-23T02:25:55.435Z,88.01
2019-05-23T02:28:41.267Z,87.62
2019-05-23T02:31:27.709Z,87.65
2019-05-23T02:34:15.183Z,87.80
2019-05-23T02:37:03.751Z,87.94
2019-05-23T02:39:56.560Z,88.17
2019-05-23T02:42:47.639Z,88.34
2019-05-23T02:45:38.854Z,88.38
2019-05-23T02:48:30.545Z,88.57
2019-05-23T02:51:23.125Z,88.66
2019-05-23T02:54:13.429Z,88.93
2019-05-23T02:57:02.657Z,88.62
2019-05-23T02:59:52.518Z,88.99
2019-05-23T03:02:50.982Z,89.37
2019-05-23T03:05:38.306Z,89.28
2019-05-23T03:08:24.596Z,88.90
2019-05-23T03:11:18.603Z,89.32
2019-05-23T03:14:05.511Z,89.44
2019-05-23T03:16:53.888Z,89.27
2019-05-23T03:19:51.208Z,88.77
2019-05-23T03:22:47.899Z,88.90
2019-05-23T03:26:18.903Z,88.66
2019-05-23T03:29:05.743Z,88.41
2019-05-23T03:32:03.621Z,88.72
2019-05-23T03:34:54.769Z,88.85
2019-05-23T03:37:41.708Z,88.89
2019-05-23T03:40:27.617Z,88.87
2019-05-23T03:43:14.170Z,88.10
2019-05-23T03:46:04.468Z,87.95
2019-05-23T03:48:52.693Z,87.53
2019-05-23T03:51:40.766Z,87.15
2019-05-23T03:54:29.094Z,86.63
2019-05-23T03:57:15.361Z,86.17
2019-05-23T04:00:02.559Z,84.90
2019-05-23T04:02:50.182Z,83.69
2019-05-23T04:05:36.959Z,82.14
2019-05-23T04:08:24.168Z,81.91
2019-05-23T04:11:11.137Z,80.44
2019-05-23T04:13:57.577Z,80.47
2019-05-23T04:16:43.629Z,79.25
2019-05-23T04:19:29.953Z,75.42
2019-05-23T04:22:16.985Z,73.63
2019-05-23T04:25:03.355Z,72.33
2019-05-23T04:27:49.738Z,70.94
2019-05-23T04:30:36.287Z,71.10
2019-05-23T04:33:22.314Z,69.04
2019-05-23T04:36:08.426Z,69.90
2019-05-23T04:38:54.784Z,71.18
2019-05-23T04:41:40.873Z,70.85
2019-05-23T04:44:27.634Z,67.96
2019-05-23T04:47:14.084Z,66.13
2019-05-23T04:50:00.623Z,63.55
2019-05-23T04:52:47.185Z,65.00
2019-05-23T04:55:33.438Z,66.73
2019-05-23T04:58:20.269Z,67.10
2019-05-23T05:01:06.787Z,65.64
2019-05-23T05:03:53.656Z,65.58
2019-05-23T05:06:39.945Z,64.90
2019-05-23T05:09:29.001Z,65.84
2019-05-23T05:12:15.362Z,64.23
2019-05-23T05:15:01.675Z,61.68
2019-05-23T05:17:47.897Z,60.59
2019-05-23T05:20:33.936Z,59.54
2019-05-23T05:23:20.559Z,59.00
2019-05-23T05:26:12.012Z,58.97
2019-05-23T05:28:58.153Z,59.12
2019-05-23T05:31:44.374Z,59.33
2019-05-23T05:34:30.698Z,62.02
2019-05-23T05:37:16.918Z,60.64
2019-05-23T05:40:05.466Z,61.82
2019-05-23T05:42:52.368Z,65.50
2019-05-23T05:45:38.564Z,66.65
2019-05-23T05:48:24.902Z,63.43
2019-05-23T05:51:11.165Z,64.63
2019-05-23T05:53:57.718Z,68.22
2019-05-23T05:56:43.490Z,64.32
2019-05-23T05:59:29.892Z,62.54
2019-05-23T06:02:17.191Z,66.41
2019-05-23T06:05:03.283Z,64.57
2019-05-23T06:07:49.918Z,66.16
2019-05-23T06:10:36.700Z,67.77
2019-05-23T06:13:22.983Z,66.39
2019-05-23T06:16:09.533Z,65.89
2019-05-23T06:18:55.678Z,65.20
2019-05-23T06:21:42.262Z,65.18
2019-05-23T06:24:43.890Z,62.30
2019-05-23T06:27:19.311Z,60.47
2019-05-23T06:30:07.902Z,61.20
2019-05-23T06:32:54.422Z,60.12
2019-05-23T06:35:40.932Z,57.50
2019-05-23T06:38:27.943Z,59.33
2019-05-23T06:41:14.402Z,57.28
2019-05-23T06:44:01.338Z,57.34
2019-05-23T06:46:47.988Z,56.40
2019-05-23T06:49:34.272Z,55.31
2019-05-23T06:52:20.502Z,55.48
2019-05-23T06:55:07.193Z,55.48
2019-05-23T06:57:53.710Z,57.21
2019-05-23T07:00:40.576Z,57.88
2019-05-23T07:03:41.693Z,56.44
2019-05-23T07:06:19.357Z,57.32
2019-05-23T07:09:11.408Z,59.73
2019-05-23T07:11:58.908Z,57.70
2019-05-23T07:14:45.057Z,56.23
2019-05-23T07:17:32.612Z,54.69
2019-05-23T07:20:19.043Z,54.83
2019-05-23T07:23:07.229Z,54.04
2019-05-23T07:25:53.351Z,53.07
2019-05-23T07:28:39.727Z,54.92
2019-05-23T07:31:25.720Z,54.49
2019-05-23T07:34:12.431Z,53.03
2019-05-23T07:36:58.671Z,52.28
2019-05-23T07:39:44.789Z,54.33
2019-05-23T07:42:31.357Z,57.49
2019-05-23T07:45:22.292Z,54.36
2019-05-23T07:48:08.849Z,52.85
2019-05-23T07:50:55.668Z,49.98
2019-05-23T07:54:11.607Z,51.46
2019-05-23T07:56:58.627Z,52.01
2019-05-23T07:59:45.108Z,49.15
2019-05-23T08:02:34.487Z,50.34
2019-05-23T08:05:21.749Z,48.22
2019-05-23T08:08:08.807Z,49.52
2019-05-23T08:10:55.447Z,47.50
2019-05-23T08:13:41.448Z,44.93
2019-05-23T08:16:28.187Z,38.32
2019-05-23T08:19:19.188Z,33.46
2019-05-23T08:22:02.688Z,38.34
2019-05-23T08:24:51.302Z,36.85
2019-05-23T08:27:37.468Z,38.69
2019-05-23T08:30:24.388Z,36.39
2019-05-23T08:33:12.057Z,35.79
2019-05-23T08:35:58.510Z,34.56
2019-05-23T08:38:45.268Z,34.20
2019-05-23T08:41:32.328Z,33.98
2019-05-23T08:44:19.939Z,34.66
2019-05-23T08:47:07.916Z,34.68
2019-05-23T08:49:54.098Z,37.51
2019-05-23T08:52:40.407Z,35.50
2019-05-23T08:55:28.147Z,36.27
2019-05-23T08:58:14.708Z,34.95
2019-05-23T09:01:02.080Z,35.21
2019-05-23T09:03:48.699Z,35.52
2019-05-23T09:06:35.273Z,36.87
2019-05-23T09:09:29.559Z,38.29
2019-05-23T09:12:09.550Z,37.94
2019-05-23T09:14:56.152Z,38.68
2019-05-23T09:17:52.759Z,36.83
2019-05-23T09:20:31.588Z,35.82
2019-05-23T09:23:18.317Z,36.61
2019-05-23T09:26:05.036Z,38.04
2019-05-23T09:28:51.133Z,39.26
2019-05-23T09:31:37.928Z,37.07
2019-05-23T09:34:24.189Z,36.07
2019-05-23T09:37:11.689Z,37.42
2019-05-23T09:39:58.249Z,36.61
2019-05-23T09:42:46.249Z,35.73
2019-05-23T09:45:32.548Z,36.50
2019-05-23T09:48:19.080Z,35.21
2019-05-23T09:51:05.199Z,35.16
2019-05-23T09:53:51.390Z,39.01
2019-05-23T09:56:38.253Z,37.27
2019-05-23T09:59:24.549Z,37.80
2019-05-23T10:02:11.414Z,38.60
2019-05-23T10:04:58.521Z,39.01
2019-05-23T10:07:44.848Z,36.90
2019-05-23T10:10:31.791Z,38.66
2019-05-23T10:13:18.415Z,37.58
2019-05-23T10:16:07.509Z,37.00
2019-05-23T10:18:54.364Z,37.80
2019-05-23T10:21:40.879Z,37.07
2019-05-23T10:24:27.429Z,35.29
2019-05-23T10:27:13.650Z,36.15
2019-05-23T10:29:59.728Z,36.78
2019-05-23T10:32:45.629Z,37.01
2019-05-23T10:35:32.455Z,36.04
2019-05-23T10:38:19.610Z,37.55
2019-05-23T10:41:05.929Z,36.74
2019-05-23T10:43:53.272Z,35.86
2019-05-23T10:46:40.289Z,39.49
2019-05-23T10:49:26.909Z,38.14
2019-05-23T10:52:13.067Z,37.97
2019-05-23T10:54:59.209Z,36.89
2019-05-23T10:57:45.708Z,36.67
2019-05-23T11:00:32.212Z,37.49
2019-05-23T11:03:18.689Z,38.03
2019-05-23T11:06:15.461Z,37.81
2019-05-23T11:08:56.106Z,38.70
2019-05-23T11:11:42.600Z,37.58
2019-05-23T11:14:29.118Z,36.95
2019-05-23T11:17:15.236Z,39.13
2019-05-23T11:20:01.502Z,40.37
2019-05-23T11:22:48.208Z,38.13
2019-05-23T11:25:35.946Z,39.79
2019-05-23T11:28:23.536Z,39.84
2019-05-23T11:31:11.648Z,39.23
2019-05-23T11:33:57.728Z,39.83
2019-05-23T11:36:43.853Z,38.73
2019-05-23T11:39:31.031Z,39.79
2019-05-23T11:42:18.108Z,40.58
2019-05-23T11:45:05.106Z,42.54
2019-05-23T11:47:51.429Z,41.06
2019-05-23T11:50:37.849Z,41.71
2019-05-23T11:53:24.332Z,39.44
2019-05-23T11:56:10.814Z,41.33
2019-05-23T11:59:01.164Z,39.76
2019-05-23T12:01:51.048Z,40.66
2019-05-23T12:04:39.588Z,42.38
2019-05-23T12:07:29.709Z,41.08
2019-05-23T12:10:16.128Z,42.12
2019-05-23T12:13:02.390Z,42.53
2019-05-23T12:15:49.268Z,40.71
2019-05-23T12:18:36.198Z,40.39
2019-05-23T12:21:23.311Z,41.17
2019-05-23T12:24:09.671Z,40.75
2019-05-23T12:26:56.050Z,41.02
2019-05-23T12:29:42.524Z,41.20
2019-05-23T12:32:28.630Z,41.72
2019-05-23T12:35:14.768Z,41.43
2019-05-23T12:38:02.655Z,42.87
2019-05-23T12:40:48.887Z,42.03
2019-05-23T12:43:35.294Z,42.55
2019-05-23T12:46:21.998Z,41.86
2019-05-23T12:49:45.868Z,41.38
2019-05-23T12:52:33.209Z,41.13
2019-05-23T12:55:19.961Z,41.11
2019-05-23T12:58:07.510Z,41.94
2019-05-23T13:00:55.870Z,39.76
2019-05-23T13:03:42.650Z,41.24
2019-05-23T13:06:28.948Z,38.50
2019-05-23T13:09:15.173Z,39.68
2019-05-23T13:12:01.334Z,41.54
2019-05-23T13:14:47.640Z,40.37
2019-05-23T13:17:34.067Z,38.54
2019-05-23T13:20:20.807Z,39.90
2019-05-23T13:23:08.239Z,42.30
2019-05-23T13:25:55.207Z,41.62
2019-05-23T13:28:41.371Z,40.83
2019-05-23T13:31:28.348Z,40.53
2019-05-23T13:34:14.828Z,40.69
2019-05-23T13:37:01.798Z,40.80
2019-05-23T13:39:48.768Z,40.31
2019-05-23T13:42:34.877Z,40.85
2019-05-23T13:45:21.388Z,40.46
2019-05-23T13:48:08.191Z,40.37
2019-05-23T13:50:54.330Z,40.76
2019-05-23T13:53:40.571Z,41.43
2019-05-23T13:56:27.531Z,41.05
2019-05-23T13:59:14.129Z,39.55
2019-05-23T14:02:00.563Z,40.50
2019-05-23T14:04:47.150Z,37.84
2019-05-23T14:07:34.229Z,38.85
2019-05-23T14:10:20.973Z,40.64
2019-05-23T14:13:07.408Z,39.29
2019-05-23T14:15:53.911Z,40.43
2019-05-23T14:18:40.248Z,41.17
2019-05-23T14:21:30.748Z,40.15
2019-05-23T14:24:17.468Z,40.63
2019-05-23T14:27:21.515Z,41.72
2019-05-23T14:30:15.018Z,39.89
2019-05-23T14:33:03.648Z,40.87
2019-05-23T14:35:50.768Z,40.27
2019-05-23T14:38:37.308Z,40.71
2019-05-23T14:41:23.628Z,39.69
2019-05-23T14:44:10.048Z,38.83
2019-05-23T14:47:22.888Z,39.49
2019-05-23T14:50:28.067Z,38.52
2019-05-23T14:53:17.988Z,38.59
2019-05-23T14:56:04.699Z,38.86
2019-05-23T14:58:51.469Z,39.10
2019-05-23T15:01:38.191Z,39.54
2019-05-23T15:04:24.487Z,39.36
2019-05-23T15:07:10.435Z,40.10
2019-05-23T15:09:56.674Z,40.85
2019-05-23T15:12:43.368Z,39.77
2019-05-23T15:15:29.951Z,40.29
2019-05-23T15:18:16.339Z,41.20
2019-05-23T15:21:02.936Z,40.06
2019-05-23T15:23:49.047Z,40.66
2019-05-23T15:26:35.528Z,39.49
2019-05-23T15:29:22.307Z,40.57
2019-05-23T15:32:08.767Z,40.36
2019-05-23T15:34:54.948Z,39.59
2019-05-23T15:37:41.417Z,38.46
2019-05-23T15:40:29.263Z,41.05
2019-05-23T15:43:15.248Z,39.81
2019-05-23T15:46:01.589Z,40.10
2019-05-23T15:48:47.767Z,39.49
2019-05-23T15:51:46.008Z,38.97
2019-05-23T15:54:51.607Z,39.42
2019-05-23T15:57:54.487Z,39.26
2019-05-23T16:01:00.208Z,40.29
2019-05-23T16:03:51.068Z,40.82
2019-05-23T16:06:38.430Z,41.07
2019-05-23T16:09:30.261Z,40.01
2019-05-23T16:12:14.668Z,41.06
2019-05-23T16:15:00.971Z,40.11
2019-05-23T16:17:47.015Z,41.39
2019-05-23T16:20:33.587Z,40.44
2019-05-23T16:23:19.848Z,40.33
2019-05-23T16:26:06.058Z,41.55
2019-05-23T16:28:52.468Z,41.49
2019-05-23T16:31:38.867Z,42.29
2019-05-23T16:34:26.191Z,40.21
2019-05-23T16:37:12.667Z,39.58
2019-05-23T16:39:58.948Z,40.62
2019-05-23T16:42:45.010Z,39.69
2019-05-23T16:45:31.156Z,40.65
2019-05-23T16:48:17.662Z,41.29
2019-05-23T16:51:03.869Z,42.16
2019-05-23T16:53:51.050Z,40.68
2019-05-23T16:56:47.267Z,40.71
2019-05-23T16:59:41.046Z,41.01
2019-05-23T17:02:45.838Z,42.18
2019-05-23T17:05:55.848Z,41.09
2019-05-23T17:08:56.349Z,42.38
2019-05-23T17:11:51.849Z,43.47
2019-05-23T17:14:51.904Z,42.15
2019-05-23T17:18:02.810Z,42.19
2019-05-23T17:21:06.990Z,43.27
2019-05-23T17:24:08.628Z,43.35
2019-05-23T17:27:17.248Z,43.20
2019-05-23T17:30:18.088Z,43.17
2019-05-23T17:33:06.689Z,42.53
2019-05-23T17:35:53.090Z,42.99
2019-05-23T17:38:39.748Z,42.85
2019-05-23T17:41:26.510Z,42.30
2019-05-23T17:44:12.929Z,42.34
2019-05-23T17:46:59.269Z,43.69
2019-05-23T17:49:45.792Z,43.34
2019-05-23T17:52:32.028Z,43.32
2019-05-23T17:55:18.608Z,44.26
2019-05-23T17:58:05.389Z,44.13
2019-05-23T18:00:51.279Z,44.32
2019-05-23T18:03:37.422Z,45.18
2019-05-23T18:06:24.173Z,44.20
2019-05-23T18:09:11.087Z,44.91
2019-05-23T18:11:58.327Z,45.09
2019-05-23T18:14:44.522Z,44.86
2019-05-23T18:17:31.631Z,45.52
2019-05-23T18:20:17.968Z,46.53
2019-05-23T18:23:05.442Z,47.34
2019-05-23T18:25:51.452Z,46.69
2019-05-23T18:28:37.732Z,50.08
2019-05-23T18:31:27.146Z,47.50
2019-05-23T18:34:13.382Z,46.85
2019-05-23T18:36:59.691Z,46.86
2019-05-23T18:39:45.787Z,50.02
2019-05-23T18:42:31.996Z,48.39
2019-05-23T18:45:19.437Z,48.72
2019-05-23T18:48:06.011Z,47.16
2019-05-23T18:50:52.042Z,48.21
2019-05-23T18:53:38.761Z,49.54
2019-05-23T18:56:25.106Z,50.50
2019-05-23T18:59:11.748Z,50.98
2019-05-23T19:01:57.666Z,50.76
2019-05-23T19:04:44.099Z,51.12
2019-05-23T19:07:30.855Z,51.07
2019-05-23T19:10:17.557Z,51.65
2019-05-23T19:13:04.107Z,51.16
2019-05-23T19:15:50.461Z,51.09
2019-05-23T19:18:36.678Z,51.64
2019-05-23T19:21:24.316Z,51.23
2019-05-23T19:24:10.611Z,51.54
2019-05-23T19:26:57.601Z,51.91
2019-05-23T19:29:44.001Z,52.09
2019-05-23T19:32:30.589Z,51.59
2019-05-23T19:35:17.096Z,52.18
2019-05-23T19:38:04.537Z,52.37
2019-05-23T19:40:51.051Z,52.92
2019-05-23T19:43:37.939Z,52.74
2019-05-23T19:46:24.341Z,53.19
2019-05-23T19:49:11.185Z,53.09
2019-05-23T19:51:57.249Z,52.37
2019-05-23T19:54:44.276Z,52.97
2019-05-23T19:57:31.647Z,53.17
2019-05-23T20:00:20.247Z,52.79
2019-05-23T20:03:06.325Z,52.99
2019-05-23T20:05:53.415Z,53.09
2019-05-23T20:08:39.875Z,53.61
2019-05-23T20:11:26.728Z,53.62
2019-05-23T20:14:13.047Z,54.09
2019-05-23T20:16:59.201Z,54.15
2019-05-23T20:19:45.372Z,54.27
2019-05-23T20:22:31.476Z,54.42
2019-05-23T20:25:18.136Z,54.40
2019-05-23T20:28:05.061Z,54.33
2019-05-23T20:30:53.473Z,54.62
2019-05-23T20:33:39.575Z,54.58
2019-05-23T20:36:25.761Z,54.53
2019-05-23T20:39:11.822Z,54.77
2019-05-23T20:42:10.842Z,54.68
2019-05-23T20:44:46.196Z,54.96
2019-05-23T20:47:32.950Z,55.21
2019-05-23T20:50:18.851Z,55.61
2019-05-23T20:53:05.358Z,55.62
2019-05-23T20:55:51.347Z,55.77
2019-05-23T20:58:37.587Z,55.82
2019-05-23T21:01:28.793Z,55.77
2019-05-23T21:04:15.297Z,55.73
2019-05-23T21:07:01.756Z,55.69
2019-05-23T21:09:47.861Z,55.57
2019-05-23T21:12:34.136Z,55.63
2019-05-23T21:15:20.258Z,55.71
2019-05-23T21:18:06.489Z,55.87
2019-05-23T21:20:52.464Z,55.66
2019-05-23T21:23:38.599Z,55.83
2019-05-23T21:26:24.774Z,55.79
2019-05-23T21:29:10.803Z,55.96
2019-05-23T21:31:57.079Z,56.03
2019-05-23T21:34:43.257Z,55.98
2019-05-23T21:37:29.244Z,56.27
2019-05-23T21:40:21.960Z,56.24
2019-05-23T21:43:08.442Z,56.52
2019-05-23T21:45:54.970Z,56.57
2019-05-23T21:48:40.779Z,56.74
2019-05-23T21:51:27.023Z,56.94
2019-05-23T21:54:13.372Z,56.95
2019-05-23T21:56:59.374Z,57.30
2019-05-23T21:59:45.630Z,57.30
2019-05-23T22:02:33.234Z,57.58
2019-05-23T22:05:19.714Z,57.97
2019-05-23T22:08:05.934Z,58.14
2019-05-23T22:10:51.954Z,58.31
2019-05-23T22:13:38.089Z,58.48
2019-05-23T22:16:24.850Z,58.82
2019-05-23T22:19:13.824Z,58.86
2019-05-23T22:22:00.123Z,59.16
2019-05-23T22:24:46.140Z,59.57
2019-05-23T22:27:32.628Z,59.80
2019-05-23T22:30:18.854Z,60.08
2019-05-23T22:33:05.266Z,60.34
2019-05-23T22:35:51.265Z,60.79
2019-05-23T22:38:37.165Z,61.02
2019-05-23T22:41:23.550Z,61.23
2019-05-23T22:44:09.763Z,61.44
2019-05-23T22:46:56.293Z,62.19
2019-05-23T22:49:42.498Z,62.42
2019-05-23T22:52:28.580Z,62.78
2019-05-23T22:55:14.818Z,63.12
2019-05-23T22:58:00.748Z,63.88
2019-05-23T23:00:48.887Z,64.26
2019-05-23T23:03:35.119Z,64.63
2019-05-23T23:06:21.353Z,65.78
2019-05-23T23:09:07.640Z,66.58
2019-05-23T23:11:53.493Z,67.12
2019-05-23T23:14:39.549Z,67.07
2019-05-23T23:17:25.723Z,69.48
2019-05-23T23:20:12.064Z,71.03
2019-05-23T23:22:58.168Z,71.19
2019-05-23T23:25:44.484Z,71.69
2019-05-23T23:28:30.494Z,71.92
2019-05-23T23:31:16.633Z,72.19
2019-05-23T23:34:02.793Z,72.58
2019-05-23T23:36:48.970Z,72.94
2019-05-23T23:39:35.008Z,73.77
2019-05-23T23:42:21.570Z,73.38
2019-05-23T23:45:26.179Z,73.96
2019-05-23T23:48:30.288Z,74.56
2019-05-23T23:51:35.053Z,77.63
2019-05-23T23:54:38.944Z,80.28
2019-05-23T23:57:43.714Z,80.11
